Time;durP1;ratioP1;P1;durP2;ratioP2;P2;SDS_P1;SDS_P2;PMS_P1;PMS_P2;Temp;Humidity;BMP_temperature;BMP_pressure;BME280_temperature;BME280_humidity;BME280_pressure;Samples;Min_cycle;Max_cycle;Signal;HPM_P1;HPM_P2
2023/04/12 00:01:07;;;;;;;;;;;;;;;;;;5000494;28;19936;-76
2023/04/12 00:03:33;;;;;;;;;;;;;;;;;;5007808;28;19921;-76
2023/04/12 00:05:58;;;;;;;;;;;;;;;;;;5006283;28;19971;-76
2023/04/12 00:08:25;;;;;;;;;;;;;;;;;;5003218;28;19960;-76
2023/04/12 00:10:50;;;;;;;;;;;;;;;;;;4995735;28;19909;-76
2023/04/12 00:13:16;;;;;;;;;;;;;;;;;;4998695;28;19913;-76
2023/04/12 00:15:41;;;;;;;;;;;;;;;;;;5005243;28;19909;-76
2023/04/12 00:18:07;;;;;;;;;;;;;;;;;;4998058;28;19937;-76
2023/04/12 00:20:32;;;;;;;;;;;;;;;;;;4996959;28;19968;-76
2023/04/12 00:22:58;;;;;;;;;;;;;;;;;;4996118;28;19913;-76
2023/04/12 00:25:23;;;;;;;;;;;;;;;;;;4997134;28;19948;-76
2023/04/12 00:27:48;;;;;;;;;;;;;;;;;;4998432;28;19913;-76
2023/04/12 00:30:13;;;;;;;;;;;;;;;;;;5027014;28;19937;-76
2023/04/12 00:32:41;;;;;;;;;;;;;;;;;;4995286;28;19914;-76
2023/04/12 00:35:06;;;;;;;;;;;;;;;;;;4996824;28;19922;-76
2023/04/12 00:37:31;;;;;;;;;;;;;;;;;;4997375;28;20021;-76
2023/04/12 00:39:57;;;;;;;;;;;;;;;;;;4995575;28;19914;-76
2023/04/12 00:42:23;;;;;;;;;;;;;;;;;;4995864;28;20296;-75
2023/04/12 00:44:48;;;;;;;;;;;;;;;;;;4996316;28;19909;-76
2023/04/12 00:47:14;;;;;;;;;;;;;;;;;;5027776;28;19913;-74
2023/04/12 00:49:40;;;;;;;;;;;;;;;;;;4995107;28;20312;-75
2023/04/12 00:52:05;;;;;;;;;;;;;;;;;;4993981;28;20009;-75
2023/04/12 00:54:31;;;;;;;;;;;;;;;;;;4993026;28;20381;-76
2023/04/12 00:56:56;;;;;;;;;;;;;;;;;;4993170;28;19917;-75
2023/04/12 00:59:21;;;;;;;;;;;;;;;;;;4992460;28;19913;-76
2023/04/12 01:01:48;;;;;;;;;;;;;;;;;;4995489;28;19917;-76
2023/04/12 01:04:13;;;;;;;;;;;;;;;;;;4995382;28;19972;-75
2023/04/12 01:06:38;;;;;;;;;;;;;;;;;;4995410;28;20203;-75
2023/04/12 01:09:04;;;;;;;;;;;;;;;;;;4994399;28;19956;-76
2023/04/12 01:11:29;;;;;;;;;;;;;;;;;;5026092;28;19924;-76
2023/04/12 01:13:55;;;;;;;;;;;;;;;;;;4995142;28;19933;-76
2023/04/12 01:16:21;;;;;;;;;;;;;;;;;;5020193;28;19960;-76
2023/04/12 01:18:50;;;;;;;;;;;;;;;;;;5026159;28;19957;-76
2023/04/12 01:21:15;;;;;;;;;;;;;;;;;;5009525;28;19913;-76
2023/04/12 01:23:41;;;;;;;;;;;;;;;;;;4989474;28;19910;-76
2023/04/12 01:26:07;;;;;;;;;;;;;;;;;;5024201;28;19931;-76
2023/04/12 01:28:32;;;;;;;;;;;;;;;;;;5001257;28;19968;-75
2023/04/12 01:30:58;;;;;;;;;;;;;;;;;;4993400;28;19968;-75
2023/04/12 01:33:30;;;;;;;;;;;;;;;;;;5006494;28;19927;-75
2023/04/12 01:35:55;;;;;;;;;;;;;;;;;;5006216;28;20009;-76
2023/04/12 01:38:20;;;;;;;;;;;;;;;;;;5006015;28;19915;-75
2023/04/12 01:40:46;;;;;;;;;;;;;;;;;;5006751;28;20368;-75
2023/04/12 01:43:11;;;;;;;;;;;;;;;;;;5007072;28;19909;-75
2023/04/12 01:45:37;;;;;;;;;;;;;;;;;;5038798;28;19913;-75
2023/04/12 01:48:02;;;;;;;;;;;;;;;;;;4991762;28;19936;-75
2023/04/12 01:50:28;;;;;;;;;;;;;;;;;;5032973;28;19914;-75
2023/04/12 01:52:55;;;;;;;;;;;;;;;;;;5005212;28;19928;-76
2023/04/12 01:55:20;;;;;;;;;;;;;;;;;;4994251;28;19914;-75
2023/04/12 01:57:45;;;;;;;;;;;;;;;;;;4992258;28;20032;-75
2023/04/12 02:00:11;;;;;;;;;;;;;;;;;;4992369;28;19917;-76
2023/04/12 02:02:39;;;;;;;;;;;;;;;;;;4995376;28;20094;-75
2023/04/12 02:05:05;;;;;;;;;;;;;;;;;;4978162;28;20437;-75
2023/04/12 02:07:30;;;;;;;;;;;;;;;;;;4978242;28;20012;-75
2023/04/12 02:09:55;;;;;;;;;;;;;;;;;;4995170;28;20301;-75
2023/04/12 02:12:21;;;;;;;;;;;;;;;;;;4998016;28;19913;-75
2023/04/12 02:14:47;;;;;;;;;;;;;;;;;;4996229;28;19993;-75
2023/04/12 02:17:12;;;;;;;;;;;;;;;;;;5022899;28;19909;-75
2023/04/12 02:19:38;;;;;;;;;;;;;;;;;;4993249;28;20273;-75
2023/04/12 02:22:04;;;;;;;;;;;;;;;;;;4997623;28;19949;-75
2023/04/12 02:24:29;;;;;;;;;;;;;;;;;;4994830;28;19917;-75
2023/04/12 02:26:55;;;;;;;;;;;;;;;;;;4998967;28;19915;-75
2023/04/12 02:29:20;;;;;;;;;;;;;;;;;;4995621;28;19913;-75
2023/04/12 02:31:47;;;;;;;;;;;;;;;;;;4995115;28;20273;-75
2023/04/12 02:34:14;;;;;;;;;;;;;;;;;;4992064;28;20269;-75
2023/04/12 02:36:44;;;;;;;;;;;;;;;;;;4998414;28;19914;-75
2023/04/12 02:39:10;;;;;;;;;;;;;;;;;;4992021;28;19918;-75
2023/04/12 02:41:35;;;;;;;;;;;;;;;;;;4996418;28;20380;-75
2023/04/12 02:44:02;;;;;;;;;;;;;;;;;;4991991;28;19921;-75
2023/04/12 02:46:27;;;;;;;;;;;;;;;;;;4991595;28;19920;-75
2023/04/12 02:48:56;;;;;;;;;;;;;;;;;;4992007;28;19913;-75
2023/04/12 02:51:30;;;;;;;;;;;;;;;;;;4983704;28;20307;-76
2023/04/12 02:53:56;;;;;;;;;;;;;;;;;;5015933;28;20008;-75
2023/04/12 02:56:23;;;;;;;;;;;;;;;;;;5024484;28;19914;-75
2023/04/12 02:58:55;;;;;;;;;;;;;;;;;;4991997;28;20242;-75
2023/04/12 03:01:39;;;;;;;;;;;;;;;;;;4993255;28;19944;-74
2023/04/12 03:04:21;;;;;;;;;;;;;;;;;;5006290;28;20016;-74
2023/04/12 03:06:52;;;;;;;;;;;;;;;;;;5025940;28;19921;-75
2023/04/12 03:09:24;;;;;;;;;;;;;;;;;;5007359;28;19914;-75
2023/04/12 03:11:50;;;;;;;;;;;;;;;;;;5025231;28;20406;-75
2023/04/12 03:14:16;;;;;;;;;;;;;;;;;;5009000;28;19902;-75
2023/04/12 03:16:42;;;;;;;;;;;;;;;;;;4991976;28;19913;-76
2023/04/12 03:19:13;;;;;;;;;;;;;;;;;;5024031;28;20379;-74
2023/04/12 03:21:38;;;;;;;;;;;;;;;;;;5027059;28;20004;-75
2023/04/12 03:24:05;;;;;;;;;;;;;;;;;;5029285;28;19972;-75
2023/04/12 03:26:30;;;;;;;;;;;;;;;;;;4997848;28;19906;-75
2023/04/12 03:28:59;;;;;;;;;;;;;;;;;;5028784;28;19910;-75
2023/04/12 03:31:25;;;;;;;;;;;;;;;;;;5028983;28;19914;-76
2023/04/12 03:33:51;;;;;;;;;;;;;;;;;;5017542;28;19929;-76
2023/04/12 03:36:23;;;;;;;;;;;;;;;;;;5029679;28;19913;-76
2023/04/12 03:38:57;;;;;;;;;;;;;;;;;;5027642;28;19957;-76
2023/04/12 03:41:22;;;;;;;;;;;;;;;;;;5030830;28;20369;-74
2023/04/12 03:43:47;;;;;;;;;;;;;;;;;;4999917;28;20416;-76
2023/04/12 03:46:16;;;;;;;;;;;;;;;;;;5000523;28;20442;-77
2023/04/12 03:48:42;;;;;;;;;;;;;;;;;;5028054;28;20384;-77
2023/04/12 03:51:11;;;;;;;;;;;;;;;;;;5002327;28;19913;-75
2023/04/12 03:53:40;;;;;;;;;;;;;;;;;;5027146;28;20008;-74
2023/04/12 03:56:07;;;;;;;;;;;;;;;;;;5026651;28;19921;-76
2023/04/12 03:58:32;;;;;;;;;;;;;;;;;;4999901;28;19914;-76
2023/04/12 04:01:01;;;;;;;;;;;;;;;;;;5001485;28;20440;-74
2023/04/12 04:03:28;;;;;;;;;;;;;;;;;;4998887;28;19920;-74
2023/04/12 04:06:05;;;;;;;;;;;;;;;;;;5003940;28;19913;-76
2023/04/12 04:08:31;;;;;;;;;;;;;;;;;;4999670;28;19920;-75
2023/04/12 04:10:57;;;;;;;;;;;;;;;;;;5026299;28;19960;-75
2023/04/12 04:13:27;;;;;;;;;;;;;;;;;;4999368;28;19913;-76
2023/04/12 04:15:57;;;;;;;;;;;;;;;;;;5030755;28;19920;-75
2023/04/12 04:18:22;;;;;;;;;;;;;;;;;;5001221;28;19914;-75
2023/04/12 04:20:47;;;;;;;;;;;;;;;;;;5027834;28;19913;-76
2023/04/12 04:23:13;;;;;;;;;;;;;;;;;;5027168;28;19920;-76
2023/04/12 04:25:40;;;;;;;;;;;;;;;;;;5010239;28;19913;-76
2023/04/12 04:28:08;;;;;;;;;;;;;;;;;;4998187;28;19913;-76
2023/04/12 04:30:37;;;;;;;;;;;;;;;;;;5029280;28;20268;-72
2023/04/12 04:33:05;;;;;;;;;;;;;;;;;;5025726;28;20369;-75
2023/04/12 04:35:31;;;;;;;;;;;;;;;;;;5030882;28;19920;-76
2023/04/12 04:38:24;;;;;;;;;;;;;;;;;;5006958;28;19917;-77
2023/04/12 04:40:52;;;;;;;;;;;;;;;;;;5020057;28;20008;-76
2023/04/12 04:43:19;;;;;;;;;;;;;;;;;;5026623;28;19920;-76
2023/04/12 04:45:47;;;;;;;;;;;;;;;;;;5016126;28;20417;-76
2023/04/12 04:48:12;;;;;;;;;;;;;;;;;;4993897;28;20033;-76
2023/04/12 04:50:37;;;;;;;;;;;;;;;;;;5025435;28;19913;-75
2023/04/12 04:53:03;;;;;;;;;;;;;;;;;;5006015;28;20287;-74
2023/04/12 04:55:31;;;;;;;;;;;;;;;;;;5024289;28;19918;-75
2023/04/12 04:57:56;;;;;;;;;;;;;;;;;;4999483;28;19983;-76
2023/04/12 05:00:24;;;;;;;;;;;;;;;;;;5023562;28;20051;-76
2023/04/12 05:02:53;;;;;;;;;;;;;;;;;;4998580;28;20472;-73
2023/04/12 05:05:27;;;;;;;;;;;;;;;;;;5025481;28;19914;-76
2023/04/12 05:08:00;;;;;;;;;;;;;;;;;;5026185;28;19917;-76
2023/04/12 05:10:28;;;;;;;;;;;;;;;;;;5029465;28;19941;-75
2023/04/12 05:12:53;;;;;;;;;;;;;;;;;;5025335;28;19960;-74
2023/04/12 05:15:20;;;;;;;;;;;;;;;;;;4999784;28;19913;-76
2023/04/12 05:17:46;;;;;;;;;;;;;;;;;;5015802;28;19916;-75
2023/04/12 05:20:11;;;;;;;;;;;;;;;;;;5026435;28;19918;-76
2023/04/12 05:22:37;;;;;;;;;;;;;;;;;;4992376;28;20282;-76
2023/04/12 05:25:02;;;;;;;;;;;;;;;;;;5018119;28;19914;-79
2023/04/12 05:27:30;;;;;;;;;;;;;;;;;;4993380;28;19910;-77
2023/04/12 05:29:57;;;;;;;;;;;;;;;;;;5027049;28;19921;-74
2023/04/12 05:32:23;;;;;;;;;;;;;;;;;;4993657;28;19909;-76
2023/04/12 05:34:49;;;;;;;;;;;;;;;;;;4994402;28;20376;-78
2023/04/12 05:37:14;;;;;;;;;;;;;;;;;;5025949;28;20389;-77
2023/04/12 05:39:41;;;;;;;;;;;;;;;;;;4992863;28;19941;-77
2023/04/12 05:42:08;;;;;;;;;;;;;;;;;;5019727;28;20413;-77
2023/04/12 05:44:34;;;;;;;;;;;;;;;;;;5021858;28;19914;-77
2023/04/12 05:47:00;;;;;;;;;;;;;;;;;;5025606;28;20303;-76
2023/04/12 05:49:25;;;;;;;;;;;;;;;;;;4996284;28;19913;-76
2023/04/12 05:51:50;;;;;;;;;;;;;;;;;;5024188;28;20119;-77
2023/04/12 05:54:20;;;;;;;;;;;;;;;;;;5025332;28;19920;-76
2023/04/12 05:56:46;;;;;;;;;;;;;;;;;;5023101;28;19913;-77
2023/04/12 05:59:12;;;;;;;;;;;;;;;;;;5025422;28;19917;-77
2023/04/12 06:01:41;;;;;;;;;;;;;;;;;;4995825;28;20000;-77
2023/04/12 06:04:13;;;;;;;;;;;;;;;;;;4993707;28;20296;-77
2023/04/12 06:06:38;;;;;;;;;;;;;;;;;;5022260;28;19910;-77
2023/04/12 06:09:04;;;;;;;;;;;;;;;;;;4996267;28;19918;-77
2023/04/12 06:11:29;;;;;;;;;;;;;;;;;;4993911;28;19960;-77
2023/04/12 06:13:55;;;;;;;;;;;;;;;;;;4995280;28;19913;-77
2023/04/12 06:16:21;;;;;;;;;;;;;;;;;;5025163;28;19916;-76
2023/04/12 06:18:46;;;;;;;;;;;;;;;;;;4994830;28;19918;-77
2023/04/12 06:21:11;;;;;;;;;;;;;;;;;;5026107;28;19913;-76
2023/04/12 06:23:38;;;;;;;;;;;;;;;;;;5013956;28;20414;-77
2023/04/12 06:26:03;;;;;;;;;;;;;;;;;;4994597;28;19902;-76
2023/04/12 06:28:28;;;;;;;;;;;;;;;;;;4994685;28;20445;-77
2023/04/12 06:30:54;;;;;;;;;;;;;;;;;;4993807;28;20389;-76
2023/04/12 06:33:23;;;;;;;;;;;;;;;;;;4993104;28;19918;-76
2023/04/12 06:35:49;;;;;;;;;;;;;;;;;;4997618;28;19924;-78
2023/04/12 06:38:15;;;;;;;;;;;;;;;;;;4996628;28;19913;-78
2023/04/12 06:40:40;;;;;;;;;;;;;;;;;;4995167;28;19959;-77
2023/04/12 06:43:06;;;;;;;;;;;;;;;;;;4997339;28;20036;-77
2023/04/12 06:45:31;;;;;;;;;;;;;;;;;;4996970;28;20441;-78
2023/04/12 06:47:56;;;;;;;;;;;;;;;;;;4999703;28;19928;-76
2023/04/12 06:50:22;;;;;;;;;;;;;;;;;;4998655;28;19914;-77
2023/04/12 06:52:47;;;;;;;;;;;;;;;;;;4997897;28;20004;-77
2023/04/12 06:55:13;;;;;;;;;;;;;;;;;;5020788;28;20388;-78
2023/04/12 06:57:38;;;;;;;;;;;;;;;;;;4999550;28;19913;-76
2023/04/12 07:00:03;;;;;;;;;;;;;;;;;;4999528;28;20387;-76
2023/04/12 07:02:29;;;;;;;;;;;;;;;;;;5000182;28;19931;-78
2023/04/12 07:04:54;;;;;;;;;;;;;;;;;;4999527;28;19914;-77
2023/04/12 07:07:20;;;;;;;;;;;;;;;;;;5004778;28;20028;-77
2023/04/12 07:09:46;;;;;;;;;;;;;;;;;;5024832;28;20387;-77
2023/04/12 07:12:11;;;;;;;;;;;;;;;;;;4999924;28;19917;-76
2023/04/12 07:14:37;;;;;;;;;;;;;;;;;;4999528;28;19916;-77
2023/04/12 07:17:02;;;;;;;;;;;;;;;;;;4999558;28;20389;-77
2023/04/12 07:19:30;;;;;;;;;;;;;;;;;;5000997;28;19914;-77
2023/04/12 07:21:55;;;;;;;;;;;;;;;;;;5001487;28;20010;-75
2023/04/12 07:24:20;;;;;;;;;;;;;;;;;;5001264;28;19946;-78
2023/04/12 07:26:46;;;;;;;;;;;;;;;;;;5000971;28;19914;-79
2023/04/12 07:29:11;;;;;;;;;;;;;;;;;;5000041;28;20005;-77
2023/04/12 07:31:36;;;;;;;;;;;;;;;;;;4998783;28;20398;-77
2023/04/12 07:34:02;;;;;;;;;;;;;;;;;;4999961;28;19921;-78
2023/04/12 07:36:27;;;;;;;;;;;;;;;;;;4999437;28;19914;-77
2023/04/12 07:38:54;;;;;;;;;;;;;;;;;;4997657;28;20445;-76
2023/04/12 07:41:19;;;;;;;;;;;;;;;;;;4999698;28;20021;-76
2023/04/12 07:43:45;;;;;;;;;;;;;;;;;;4999420;28;19910;-77
2023/04/12 07:46:10;;;;;;;;;;;;;;;;;;4997861;28;20023;-77
2023/04/12 07:48:36;;;;;;;;;;;;;;;;;;4999379;28;19910;-77
2023/04/12 07:51:01;;;;;;;;;;;;;;;;;;4999176;28;19921;-79
2023/04/12 07:53:27;;;;;;;;;;;;;;;;;;4999066;28;19992;-76
2023/04/12 07:55:52;;;;;;;;;;;;;;;;;;4998974;28;19918;-77
2023/04/12 07:58:17;;;;;;;;;;;;;;;;;;4999307;28;19913;-78
2023/04/12 08:00:43;;;;;;;;;;;;;;;;;;5000389;28;19943;-77
2023/04/12 08:03:08;;;;;;;;;;;;;;;;;;4999804;28;19933;-78
2023/04/12 08:05:33;;;;;;;;;;;;;;;;;;4997064;28;19920;-78
2023/04/12 08:07:59;;;;;;;;;;;;;;;;;;4996615;28;19920;-79
2023/04/12 08:10:24;;;;;;;;;;;;;;;;;;4996861;28;19920;-78
2023/04/12 08:12:49;;;;;;;;;;;;;;;;;;4995773;28;19964;-78
2023/04/12 08:15:15;;;;;;;;;;;;;;;;;;4996124;28;20305;-79
2023/04/12 08:17:42;;;;;;;;;;;;;;;;;;5027623;28;19944;-79
2023/04/12 08:20:07;;;;;;;;;;;;;;;;;;4995742;28;19925;-78
2023/04/12 08:22:33;;;;;;;;;;;;;;;;;;4997387;28;19914;-76
2023/04/12 08:24:58;;;;;;;;;;;;;;;;;;4997474;28;20396;-76
2023/04/12 08:27:23;;;;;;;;;;;;;;;;;;4996412;28;20007;-79
2023/04/12 08:29:49;;;;;;;;;;;;;;;;;;4998469;28;19956;-75
2023/04/12 08:32:15;;;;;;;;;;;;;;;;;;4997918;28;19964;-78
2023/04/12 08:34:40;;;;;;;;;;;;;;;;;;4998817;28;19922;-78
2023/04/12 08:37:06;;;;;;;;;;;;;;;;;;5021383;28;20381;-78
2023/04/12 08:39:31;;;;;;;;;;;;;;;;;;4993935;28;19913;-78
2023/04/12 08:41:57;;;;;;;;;;;;;;;;;;4996789;28;19929;-78
2023/04/12 08:44:22;;;;;;;;;;;;;;;;;;5000552;28;20292;-78
2023/04/12 08:46:47;;;;;;;;;;;;;;;;;;5034327;28;20281;-78
2023/04/12 08:49:13;;;;;;;;;;;;;;;;;;5000616;28;19910;-78
2023/04/12 08:51:38;;;;;;;;;;;;;;;;;;5003374;28;19917;-77
2023/04/12 08:54:03;;;;;;;;;;;;;;;;;;4997456;28;19916;-76
2023/04/12 08:56:29;;;;;;;;;;;;;;;;;;5029809;28;21157;-78
2023/04/12 08:58:54;;;;;;;;;;;;;;;;;;5027505;28;20396;-79
2023/04/12 09:01:20;;;;;;;;;;;;;;;;;;5006256;28;19928;-77
2023/04/12 09:03:45;;;;;;;;;;;;;;;;;;5000819;28;19937;-77
2023/04/12 09:06:11;;;;;;;;;;;;;;;;;;5007061;28;19913;-77
2023/04/12 09:08:36;;;;;;;;;;;;;;;;;;5002286;28;19916;-78
2023/04/12 09:11:01;;;;;;;;;;;;;;;;;;5008709;28;19920;-77
2023/04/12 09:13:26;;;;;;;;;;;;;;;;;;5002385;28;20000;-79
2023/04/12 09:15:52;;;;;;;;;;;;;;;;;;5008401;28;19917;-77
2023/04/12 09:18:17;;;;;;;;;;;;;;;;;;5001565;28;19917;-79
2023/04/12 09:20:42;;;;;;;;;;;;;;;;;;5001200;28;20019;-79
2023/04/12 09:23:08;;;;;;;;;;;;;;;;;;5009143;28;20360;-76
2023/04/12 09:25:33;;;;;;;;;;;;;;;;;;5011316;28;19913;-77
2023/04/12 09:27:58;;;;;;;;;;;;;;;;;;5008984;28;19913;-77
2023/04/12 09:30:24;;;;;;;;;;;;;;;;;;5012177;28;19913;-80
2023/04/12 09:32:52;;;;;;;;;;;;;;;;;;5001394;28;19956;-78
2023/04/12 09:35:18;;;;;;;;;;;;;;;;;;5000805;28;19960;-78
2023/04/12 09:37:43;;;;;;;;;;;;;;;;;;5010772;28;20380;-78
2023/04/12 09:40:08;;;;;;;;;;;;;;;;;;5025737;28;19932;-78
2023/04/12 09:42:34;;;;;;;;;;;;;;;;;;5005251;28;19915;-78
2023/04/12 09:45:00;;;;;;;;;;;;;;;;;;5011939;28;20388;-78
2023/04/12 09:47:26;;;;;;;;;;;;;;;;;;5031180;28;19916;-78
2023/04/12 09:49:51;;;;;;;;;;;;;;;;;;5025317;28;19914;-79
2023/04/12 09:52:16;;;;;;;;;;;;;;;;;;5006459;28;19945;-75
2023/04/12 09:54:42;;;;;;;;;;;;;;;;;;4994502;28;19920;-75
2023/04/12 09:57:10;;;;;;;;;;;;;;;;;;5006572;28;19964;-76
2023/04/12 09:59:35;;;;;;;;;;;;;;;;;;5006324;28;19918;-78
2023/04/12 10:02:01;;;;;;;;;;;;;;;;;;4994230;28;20295;-78
2023/04/12 10:04:26;;;;;;;;;;;;;;;;;;4995536;28;19913;-79
2023/04/12 10:06:51;;;;;;;;;;;;;;;;;;4994857;28;19910;-79
2023/04/12 10:09:17;;;;;;;;;;;;;;;;;;4993768;28;19919;-78
2023/04/12 10:11:42;;;;;;;;;;;;;;;;;;4992606;28;19910;-78
2023/04/12 10:14:07;;;;;;;;;;;;;;;;;;4992885;28;20020;-79
2023/04/12 10:16:33;;;;;;;;;;;;;;;;;;4994030;28;19909;-77
2023/04/12 10:18:58;;;;;;;;;;;;;;;;;;4992171;28;19953;-77
2023/04/12 10:21:23;;;;;;;;;;;;;;;;;;4989007;28;19913;-77
2023/04/12 10:23:49;;;;;;;;;;;;;;;;;;5031650;28;19921;-76
2023/04/12 10:26:14;;;;;;;;;;;;;;;;;;5024900;28;19996;-77
2023/04/12 10:28:39;;;;;;;;;;;;;;;;;;5005717;28;19917;-79
2023/04/12 10:31:05;;;;;;;;;;;;;;;;;;5002169;28;19910;-79
2023/04/12 10:33:31;;;;;;;;;;;;;;;;;;5001641;28;19913;-76
2023/04/12 10:36:02;;;;;;;;;;;;;;;;;;5027336;28;19920;-79
2023/04/12 10:38:31;;;;;;;;;;;;;;;;;;5007369;28;19913;-78
2023/04/12 10:40:56;;;;;;;;;;;;;;;;;;5003519;28;20442;-80
2023/04/12 10:43:22;;;;;;;;;;;;;;;;;;5024117;28;19918;-78
2023/04/12 10:45:48;;;;;;;;;;;;;;;;;;5000693;28;19910;-77
2023/04/12 10:48:13;;;;;;;;;;;;;;;;;;5007992;28;19920;-77
2023/04/12 10:50:39;;;;;;;;;;;;;;;;;;5005715;28;19914;-77
2023/04/12 10:53:05;;;;;;;;;;;;;;;;;;5006650;28;19915;-77
2023/04/12 10:55:32;;;;;;;;;;;;;;;;;;5005207;28;20374;-79
2023/04/12 10:57:57;;;;;;;;;;;;;;;;;;5006887;28;20501;-77
2023/04/12 11:00:22;;;;;;;;;;;;;;;;;;5028592;28;20012;-77
2023/04/12 11:02:48;;;;;;;;;;;;;;;;;;5008521;28;19924;-78
2023/04/12 11:05:17;;;;;;;;;;;;;;;;;;5029007;28;19996;-77
2023/04/12 11:07:59;;;;;;;;;;;;;;;;;;5002164;28;19965;-77
2023/04/12 11:10:42;;;;;;;;;;;;;;;;;;5004968;28;20292;-79
2023/04/12 11:13:14;;;;;;;;;;;;;;;;;;5006203;28;19921;-77
2023/04/12 11:15:39;;;;;;;;;;;;;;;;;;5022929;28;20297;-79
2023/04/12 11:18:10;;;;;;;;;;;;;;;;;;5024648;28;19914;-79
2023/04/12 11:20:35;;;;;;;;;;;;;;;;;;4995489;28;20285;-78
2023/04/12 11:23:01;;;;;;;;;;;;;;;;;;4993281;28;19964;-79
2023/04/12 11:25:27;;;;;;;;;;;;;;;;;;4995105;28;19917;-78
2023/04/12 11:27:53;;;;;;;;;;;;;;;;;;4996178;28;20008;-78
2023/04/12 11:30:19;;;;;;;;;;;;;;;;;;4996226;28;19914;-79
2023/04/12 11:32:44;;;;;;;;;;;;;;;;;;4997209;28;19909;-79
2023/04/12 11:35:10;;;;;;;;;;;;;;;;;;4995922;28;20020;-80
2023/04/12 11:37:37;;;;;;;;;;;;;;;;;;4977379;28;19960;-79
2023/04/12 11:40:04;;;;;;;;;;;;;;;;;;4995716;28;19924;-79
2023/04/12 11:42:29;;;;;;;;;;;;;;;;;;4996479;28;20293;-77
2023/04/12 11:44:58;;;;;;;;;;;;;;;;;;4999191;28;19914;-77
2023/04/12 11:47:23;;;;;;;;;;;;;;;;;;4998481;28;19988;-77
2023/04/12 11:50:14;;;;;;;;;;;;;;;;;;4988893;28;19989;-79
2023/04/12 11:52:40;;;;;;;;;;;;;;;;;;5000079;28;19951;-77
2023/04/12 11:55:06;;;;;;;;;;;;;;;;;;4998145;28;19917;-79
2023/04/12 11:57:31;;;;;;;;;;;;;;;;;;4998212;28;19940;-77
2023/04/12 12:00:00;;;;;;;;;;;;;;;;;;4988172;28;19914;-79
2023/04/12 12:02:25;;;;;;;;;;;;;;;;;;4999748;28;19918;-79
2023/04/12 12:04:50;;;;;;;;;;;;;;;;;;5009669;28;19920;-78
2023/04/12 12:07:16;;;;;;;;;;;;;;;;;;5005511;28;20454;-78
2023/04/12 12:09:41;;;;;;;;;;;;;;;;;;4999802;28;19915;-78
2023/04/12 12:12:07;;;;;;;;;;;;;;;;;;5001719;28;19944;-78
2023/04/12 12:14:32;;;;;;;;;;;;;;;;;;4999751;28;19913;-78
2023/04/12 12:16:57;;;;;;;;;;;;;;;;;;5002978;28;19936;-77
2023/04/12 12:19:22;;;;;;;;;;;;;;;;;;5028589;28;19916;-77
2023/04/12 12:21:48;;;;;;;;;;;;;;;;;;4999809;28;19937;-78
2023/04/12 12:24:13;;;;;;;;;;;;;;;;;;5002649;28;19931;-78
2023/04/12 12:26:39;;;;;;;;;;;;;;;;;;5000726;28;19917;-77
2023/04/12 12:29:04;;;;;;;;;;;;;;;;;;4999832;28;20488;-78
2023/04/12 12:31:32;;;;;;;;;;;;;;;;;;4990357;28;19964;-77
2023/04/12 12:33:57;;;;;;;;;;;;;;;;;;4999542;28;19922;-78
2023/04/12 12:36:23;;;;;;;;;;;;;;;;;;4999037;28;19913;-78
2023/04/12 12:38:50;;;;;;;;;;;;;;;;;;5001004;28;20004;-78
2023/04/12 12:41:15;;;;;;;;;;;;;;;;;;5001905;28;19917;-78
2023/04/12 12:43:41;;;;;;;;;;;;;;;;;;5001787;28;20072;-79
2023/04/12 12:46:06;;;;;;;;;;;;;;;;;;5002180;28;19920;-77
2023/04/12 12:48:31;;;;;;;;;;;;;;;;;;5001756;28;19913;-79
2023/04/12 12:50:57;;;;;;;;;;;;;;;;;;5001811;28;20016;-79
2023/04/12 12:53:22;;;;;;;;;;;;;;;;;;5001600;28;19953;-79
2023/04/12 12:55:47;;;;;;;;;;;;;;;;;;5001785;28;19914;-78
2023/04/12 12:58:13;;;;;;;;;;;;;;;;;;5002411;28;20369;-78
2023/04/12 13:00:40;;;;;;;;;;;;;;;;;;5002359;28;19928;-78
2023/04/12 13:03:05;;;;;;;;;;;;;;;;;;5002675;28;19921;-79
2023/04/12 13:05:30;;;;;;;;;;;;;;;;;;4996125;28;19913;-79
2023/04/12 13:07:56;;;;;;;;;;;;;;;;;;4998092;28;19960;-79
2023/04/12 13:10:22;;;;;;;;;;;;;;;;;;5002116;28;20094;-77
2023/04/12 13:12:47;;;;;;;;;;;;;;;;;;5004896;28;19921;-79
2023/04/12 13:15:13;;;;;;;;;;;;;;;;;;5003593;28;20390;-79
2023/04/12 13:17:38;;;;;;;;;;;;;;;;;;5001708;28;19918;-76
2023/04/12 13:20:03;;;;;;;;;;;;;;;;;;4998292;28;20020;-79
2023/04/12 13:22:29;;;;;;;;;;;;;;;;;;4994599;28;19929;-77
2023/04/12 13:24:56;;;;;;;;;;;;;;;;;;4999188;28;19913;-77
2023/04/12 13:27:22;;;;;;;;;;;;;;;;;;4999699;28;20027;-78
2023/04/12 13:29:47;;;;;;;;;;;;;;;;;;4999622;28;20065;-78
2023/04/12 13:32:13;;;;;;;;;;;;;;;;;;5009293;28;20000;-78
2023/04/12 13:34:38;;;;;;;;;;;;;;;;;;4995365;28;20420;-76
2023/04/12 13:37:03;;;;;;;;;;;;;;;;;;5026043;28;19919;-76
2023/04/12 13:39:29;;;;;;;;;;;;;;;;;;4994445;28;19920;-77
2023/04/12 13:41:55;;;;;;;;;;;;;;;;;;4994209;28;19929;-77
2023/04/12 13:44:20;;;;;;;;;;;;;;;;;;4994505;28;19909;-79
2023/04/12 13:46:46;;;;;;;;;;;;;;;;;;4994653;28;20012;-78
2023/04/12 13:49:11;;;;;;;;;;;;;;;;;;4993030;28;19914;-76
2023/04/12 13:51:37;;;;;;;;;;;;;;;;;;4994271;28;19913;-77
2023/04/12 13:54:02;;;;;;;;;;;;;;;;;;4998764;28;19916;-77
2023/04/12 13:56:28;;;;;;;;;;;;;;;;;;4999661;28;20373;-77
2023/04/12 13:58:53;;;;;;;;;;;;;;;;;;4996677;28;19945;-76
2023/04/12 14:01:22;;;;;;;;;;;;;;;;;;5000161;28;19925;-77
2023/04/12 14:03:47;;;;;;;;;;;;;;;;;;4998659;28;20042;-77
2023/04/12 14:06:13;;;;;;;;;;;;;;;;;;4998965;28;20411;-77
2023/04/12 14:08:38;;;;;;;;;;;;;;;;;;4998988;28;20304;-77
2023/04/12 14:11:03;;;;;;;;;;;;;;;;;;5031966;28;20344;-77
2023/04/12 14:13:29;;;;;;;;;;;;;;;;;;4998545;28;20332;-77
2023/04/12 14:15:56;;;;;;;;;;;;;;;;;;4997286;28;20436;-76
2023/04/12 14:18:21;;;;;;;;;;;;;;;;;;4997685;28;19910;-76
2023/04/12 14:20:50;;;;;;;;;;;;;;;;;;4994365;28;19968;-77
2023/04/12 14:23:17;;;;;;;;;;;;;;;;;;4995138;28;19910;-78
2023/04/12 14:25:42;;;;;;;;;;;;;;;;;;4993394;28;19913;-77
2023/04/12 14:28:15;;;;;;;;;;;;;;;;;;4995091;28;19975;-78
2023/04/12 14:30:40;;;;;;;;;;;;;;;;;;4992522;28;19914;-76
2023/04/12 14:33:06;;;;;;;;;;;;;;;;;;4991113;28;19916;-79
2023/04/12 14:35:31;;;;;;;;;;;;;;;;;;4993436;28;19925;-78
2023/04/12 14:37:57;;;;;;;;;;;;;;;;;;4993755;28;19910;-78
2023/04/12 14:40:22;;;;;;;;;;;;;;;;;;4993193;28;19917;-79
2023/04/12 14:42:47;;;;;;;;;;;;;;;;;;4992838;28;20043;-77
2023/04/12 14:45:14;;;;;;;;;;;;;;;;;;4988073;28;20365;-78
2023/04/12 14:47:40;;;;;;;;;;;;;;;;;;4993120;28;19935;-78
2023/04/12 14:50:05;;;;;;;;;;;;;;;;;;4993133;28;19914;-78
2023/04/12 14:52:31;;;;;;;;;;;;;;;;;;4993627;28;19910;-76
2023/04/12 14:54:56;;;;;;;;;;;;;;;;;;4993422;28;19953;-76
2023/04/12 14:57:21;;;;;;;;;;;;;;;;;;4991649;28;19916;-78
2023/04/12 14:59:47;;;;;;;;;;;;;;;;;;4993255;28;19921;-77
2023/04/12 15:02:12;;;;;;;;;;;;;;;;;;4993071;28;20427;-78
2023/04/12 15:04:38;;;;;;;;;;;;;;;;;;4992980;28;20004;-76
2023/04/12 15:07:03;;;;;;;;;;;;;;;;;;5018806;28;19910;-78
2023/04/12 15:09:28;;;;;;;;;;;;;;;;;;4993870;28;19913;-77
2023/04/12 15:11:59;;;;;;;;;;;;;;;;;;4992376;28;19914;-78
2023/04/12 15:14:25;;;;;;;;;;;;;;;;;;4991778;28;19997;-77
2023/04/12 15:16:50;;;;;;;;;;;;;;;;;;5024451;28;20029;-78
2023/04/12 15:19:16;;;;;;;;;;;;;;;;;;5028334;28;20277;-78
2023/04/12 15:21:42;;;;;;;;;;;;;;;;;;4997928;28;19949;-76
2023/04/12 15:24:08;;;;;;;;;;;;;;;;;;5001519;28;19995;-80
2023/04/12 15:26:33;;;;;;;;;;;;;;;;;;5001068;28;19919;-79
2023/04/12 15:28:59;;;;;;;;;;;;;;;;;;5008430;28;19920;-81
2023/04/12 15:31:24;;;;;;;;;;;;;;;;;;4996094;28;19910;-80
2023/04/12 15:33:50;;;;;;;;;;;;;;;;;;5020240;28;20017;-79
2023/04/12 15:36:15;;;;;;;;;;;;;;;;;;4993362;28;19913;-80
2023/04/12 15:38:41;;;;;;;;;;;;;;;;;;5036330;28;19914;-80
2023/04/12 15:41:07;;;;;;;;;;;;;;;;;;5005243;28;20305;-80
2023/04/12 15:43:32;;;;;;;;;;;;;;;;;;5011935;28;19963;-80
2023/04/12 15:45:57;;;;;;;;;;;;;;;;;;5008218;28;19910;-80
2023/04/12 15:48:29;;;;;;;;;;;;;;;;;;4993734;28;19919;-79
2023/04/12 15:50:55;;;;;;;;;;;;;;;;;;5010119;28;20300;-80
2023/04/12 15:53:20;;;;;;;;;;;;;;;;;;5013036;28;20336;-80
2023/04/12 15:55:46;;;;;;;;;;;;;;;;;;4998917;28;20013;-79
2023/04/12 15:58:12;;;;;;;;;;;;;;;;;;4996064;28;19909;-78
2023/04/12 16:00:37;;;;;;;;;;;;;;;;;;4997263;28;20019;-79
2023/04/12 16:03:03;;;;;;;;;;;;;;;;;;4996430;28;19920;-82
2023/04/12 16:05:28;;;;;;;;;;;;;;;;;;5008399;28;20007;-79
2023/04/12 16:07:55;;;;;;;;;;;;;;;;;;5039684;28;19996;-81
2023/04/12 16:10:21;;;;;;;;;;;;;;;;;;4995813;28;20273;-80
2023/04/12 16:12:48;;;;;;;;;;;;;;;;;;5013773;28;19909;-81
2023/04/12 16:15:13;;;;;;;;;;;;;;;;;;5005900;28;20024;-80
2023/04/12 16:17:38;;;;;;;;;;;;;;;;;;4998242;28;20004;-79
2023/04/12 16:20:05;;;;;;;;;;;;;;;;;;4978379;28;19925;-78
2023/04/12 16:22:30;;;;;;;;;;;;;;;;;;4995013;28;19918;-79
2023/04/12 16:24:56;;;;;;;;;;;;;;;;;;4998860;28;20006;-81
2023/04/12 16:27:22;;;;;;;;;;;;;;;;;;5028664;28;19917;-80
2023/04/12 16:29:48;;;;;;;;;;;;;;;;;;4993087;28;19960;-80
2023/04/12 16:32:13;;;;;;;;;;;;;;;;;;4995455;28;19932;-80
2023/04/12 16:34:40;;;;;;;;;;;;;;;;;;4994862;28;19922;-80
2023/04/12 16:37:05;;;;;;;;;;;;;;;;;;5009906;28;19910;-80
2023/04/12 16:39:32;;;;;;;;;;;;;;;;;;5026423;28;19946;-80